createdAt,value
2023-03-08T00:03:02.852Z,18.10
2023-03-08T00:06:12.199Z,17.00
2023-03-08T00:09:18.584Z,20.60
2023-03-08T00:15:29.435Z,18.80
2023-03-08T00:21:40.368Z,17.10
2023-03-08T00:24:46.773Z,18.00
2023-03-08T00:31:02.156Z,17.40
2023-03-08T00:34:08.545Z,22.70
2023-03-08T00:40:19.674Z,26.10
2023-03-08T00:43:26.484Z,18.90
2023-03-08T00:46:32.803Z,17.70
2023-03-08T00:52:43.686Z,14.60
2023-03-08T00:59:01.294Z,14.50
2023-03-08T01:05:13.767Z,14.10
2023-03-08T01:08:21.197Z,14.40
2023-03-08T01:11:28.916Z,13.70
2023-03-08T01:14:35.219Z,14.00
2023-03-08T01:20:46.352Z,14.40
2023-03-08T01:23:53.689Z,13.40
2023-03-08T01:27:01.035Z,14.80
2023-03-08T01:30:08.990Z,15.30
2023-03-08T01:33:15.306Z,15.10
2023-03-08T01:36:23.563Z,13.30
2023-03-08T01:39:30.036Z,14.70
2023-03-08T01:42:38.635Z,15.30
2023-03-08T01:46:06.913Z,14.40
2023-03-08T01:49:16.387Z,16.20
2023-03-08T01:52:27.560Z,15.40
2023-03-08T01:55:35.319Z,15.20
2023-03-08T01:58:43.104Z,15.70
2023-03-08T02:01:50.261Z,16.10
2023-03-08T02:04:56.675Z,13.80
2023-03-08T02:11:08.340Z,14.30
2023-03-08T02:14:14.805Z,14.60
2023-03-08T02:17:21.347Z,16.00
2023-03-08T02:20:32.182Z,15.00
2023-03-08T02:23:38.564Z,14.30
2023-03-08T02:29:49.725Z,14.30
2023-03-08T02:32:56.205Z,14.70
2023-03-08T02:36:05.189Z,15.70
2023-03-08T02:39:11.581Z,16.20
2023-03-08T02:45:22.459Z,15.20
2023-03-08T02:51:33.331Z,16.10
2023-03-08T02:57:44.368Z,15.80
2023-03-08T03:03:56.813Z,15.70
2023-03-08T03:07:03.892Z,14.30
2023-03-08T03:10:13.844Z,17.70
2023-03-08T03:13:20.712Z,17.80
2023-03-08T03:16:28.051Z,17.90
2023-03-08T03:19:34.421Z,16.20
2023-03-08T03:25:45.431Z,14.90
2023-03-08T03:31:56.512Z,14.20
2023-03-08T03:35:03.070Z,14.90
2023-03-08T03:38:09.436Z,14.80
2023-03-08T03:44:21.189Z,15.10
2023-03-08T03:50:32.537Z,15.20
2023-03-08T03:53:39.236Z,14.40
2023-03-08T03:56:45.488Z,15.30
2023-03-08T03:59:51.768Z,14.20
2023-03-08T04:02:58.096Z,13.90
2023-03-08T04:09:17.683Z,12.80
2023-03-08T04:12:24.044Z,12.30
2023-03-08T04:18:36.209Z,13.50
2023-03-08T04:21:42.634Z,13.40
2023-03-08T04:27:53.675Z,13.80
2023-03-08T04:34:05.420Z,13.10
2023-03-08T04:37:12.086Z,13.80
2023-03-08T04:40:19.081Z,14.50
2023-03-08T04:43:25.518Z,14.00
2023-03-08T04:49:36.644Z,12.70
2023-03-08T04:55:47.947Z,12.50
2023-03-08T05:01:58.817Z,12.00
2023-03-08T05:08:10.897Z,14.00
2023-03-08T05:14:24.229Z,14.40
2023-03-08T05:20:35.617Z,14.30
2023-03-08T05:23:41.949Z,13.70
2023-03-08T05:29:54.597Z,13.70
2023-03-08T05:33:00.931Z,14.40
2023-03-08T05:39:13.636Z,13.20
2023-03-08T05:42:20.917Z,13.00
2023-03-08T05:45:27.483Z,14.00
2023-03-08T05:48:34.823Z,12.40
2023-03-08T05:51:41.331Z,14.20
2023-03-08T05:54:47.751Z,12.60
2023-03-08T06:00:58.748Z,12.60
2023-03-08T06:07:09.753Z,12.20
2023-03-08T06:10:15.992Z,12.60
2023-03-08T06:13:22.353Z,12.50
2023-03-08T06:19:33.633Z,14.40
2023-03-08T06:22:40.059Z,13.70
2023-03-08T06:28:52.588Z,12.20
2023-03-08T06:35:03.464Z,12.30
2023-03-08T06:41:15.884Z,12.80
2023-03-08T06:44:22.537Z,13.20
2023-03-08T06:47:31.157Z,12.40
2023-03-08T06:50:38.133Z,12.90
2023-03-08T06:53:44.465Z,13.20
2023-03-08T06:59:55.774Z,13.40
2023-03-08T07:06:09.810Z,13.90
2023-03-08T07:09:16.348Z,13.10
2023-03-08T07:12:22.686Z,12.70
2023-03-08T07:18:34.528Z,12.50
2023-03-08T07:21:44.506Z,12.40
2023-03-08T07:24:51.764Z,12.20
2023-03-08T07:27:59.813Z,15.00
2023-03-08T07:31:06.495Z,12.70
2023-03-08T07:34:13.392Z,12.70
2023-03-08T07:37:19.678Z,11.90
2023-03-08T07:40:26.064Z,12.70
2023-03-08T07:43:32.378Z,13.10
2023-03-08T07:49:43.385Z,12.00
2023-03-08T07:55:54.373Z,13.70
2023-03-08T07:59:00.757Z,12.00
2023-03-08T08:05:12.648Z,12.40
2023-03-08T08:08:19.032Z,11.50
2023-03-08T08:14:30.368Z,12.30
2023-03-08T08:20:41.725Z,13.00
2023-03-08T08:23:48.684Z,13.40
2023-03-08T08:26:55.141Z,13.40
2023-03-08T08:30:01.894Z,12.30
2023-03-08T08:33:08.156Z,12.00
2023-03-08T08:36:17.424Z,12.80
2023-03-08T08:39:23.839Z,14.10
2023-03-08T08:45:34.737Z,12.10
2023-03-08T08:51:45.609Z,13.00
2023-03-08T08:57:56.675Z,12.30
2023-03-08T09:04:07.547Z,11.40
2023-03-08T09:10:43.607Z,11.90
2023-03-08T09:13:50.301Z,11.80
2023-03-08T09:16:56.857Z,11.30
2023-03-08T09:20:06.162Z,12.40
2023-03-08T09:23:12.779Z,12.30
2023-03-08T09:26:19.763Z,11.60
2023-03-08T09:29:26.356Z,11.60
2023-03-08T09:32:34.169Z,11.50
2023-03-08T09:35:40.904Z,11.20
2023-03-08T09:38:48.432Z,11.60
2023-03-08T09:41:57.538Z,11.10
2023-03-08T09:45:28.384Z,11.60
2023-03-08T09:48:35.903Z,11.10
2023-03-08T09:51:47.511Z,11.90
2023-03-08T09:54:55.170Z,12.30
2023-03-08T09:58:04.269Z,10.80
2023-03-08T10:01:24.318Z,11.80
2023-03-08T10:04:47.082Z,11.40
2023-03-08T10:08:00.438Z,10.90
2023-03-08T10:11:16.871Z,11.50
2023-03-08T10:14:27.815Z,11.30
2023-03-08T10:17:45.090Z,11.10
2023-03-08T10:20:51.777Z,11.80
2023-03-08T10:24:03.942Z,11.60
2023-03-08T10:27:21.925Z,12.00
2023-03-08T10:30:30.268Z,10.80
2023-03-08T10:33:38.033Z,12.50
2023-03-08T10:36:53.839Z,12.70
2023-03-08T10:40:05.575Z,11.20
2023-03-08T10:43:26.579Z,12.40
2023-03-08T10:46:33.994Z,10.10
2023-03-08T10:49:40.578Z,10.90
2023-03-08T10:52:48.876Z,11.50
2023-03-08T10:55:56.425Z,11.10
2023-03-08T10:59:04.345Z,10.70
2023-03-08T11:02:23.001Z,12.20
2023-03-08T11:05:29.963Z,11.20
2023-03-08T11:08:39.416Z,10.30
2023-03-08T11:11:46.255Z,12.70
2023-03-08T11:14:53.285Z,10.30
2023-03-08T11:18:05.884Z,11.40
2023-03-08T11:21:22.229Z,10.50
2023-03-08T11:24:42.368Z,10.30
2023-03-08T11:28:09.255Z,10.50
2023-03-08T11:31:27.604Z,11.10
2023-03-08T11:34:50.642Z,11.20
2023-03-08T11:38:03.903Z,9.50
2023-03-08T11:41:22.512Z,11.40
2023-03-08T11:44:52.278Z,10.80
2023-03-08T11:48:22.572Z,10.90
2023-03-08T11:51:36.527Z,10.40
2023-03-08T11:54:54.314Z,10.00
2023-03-08T11:58:06.542Z,11.10
2023-03-08T12:01:19.517Z,10.50
2023-03-08T12:04:38.859Z,12.50
2023-03-08T12:07:50.352Z,10.50
2023-03-08T12:11:02.037Z,10.80
2023-03-08T12:14:17.722Z,11.80
2023-03-08T12:17:27.189Z,11.30
2023-03-08T12:20:40.172Z,10.60
2023-03-08T12:23:57.330Z,11.80
2023-03-08T12:27:11.334Z,10.70
2023-03-08T12:30:27.757Z,10.70
2023-03-08T12:33:35.250Z,9.40
2023-03-08T12:36:43.687Z,9.30
2023-03-08T12:39:59.234Z,10.20
2023-03-08T12:43:11.532Z,10.40
2023-03-08T12:46:18.258Z,9.10
2023-03-08T12:49:31.576Z,8.50
2023-03-08T12:52:38.218Z,9.30
2023-03-08T12:55:45.030Z,10.90
2023-03-08T12:58:57.129Z,8.60
2023-03-08T13:02:26.878Z,10.00
2023-03-08T13:05:36.590Z,10.60
2023-03-08T13:08:50.422Z,10.10
2023-03-08T13:12:21.937Z,10.10
2023-03-08T13:15:29.449Z,9.20
2023-03-08T13:18:37.119Z,8.20
2023-03-08T13:21:52.229Z,8.40
2023-03-08T13:25:03.774Z,9.40
2023-03-08T13:28:13.842Z,10.50
2023-03-08T13:31:23.319Z,8.80
2023-03-08T13:34:32.603Z,8.60
2023-03-08T13:37:39.923Z,9.80
2023-03-08T13:40:54.563Z,9.60
2023-03-08T13:44:05.720Z,9.80
2023-03-08T13:47:25.837Z,9.30
2023-03-08T13:50:35.364Z,13.30
2023-03-08T13:53:44.418Z,11.20
2023-03-08T13:56:55.820Z,8.00
2023-03-08T14:00:22.084Z,8.30
2023-03-08T14:03:31.879Z,9.30
2023-03-08T14:06:41.652Z,9.50
2023-03-08T14:09:48.477Z,9.50
2023-03-08T14:12:55.310Z,8.30
2023-03-08T14:16:04.467Z,9.90
2023-03-08T14:19:25.445Z,7.90
2023-03-08T14:22:39.780Z,9.90
2023-03-08T14:25:57.346Z,8.70
2023-03-08T14:29:21.882Z,8.40
2023-03-08T14:32:36.165Z,10.90
2023-03-08T14:35:46.714Z,9.00
2023-03-08T14:38:53.758Z,7.80
2023-03-08T14:42:09.808Z,8.80
2023-03-08T14:48:33.658Z,9.30
2023-03-08T14:51:43.621Z,8.40
2023-03-08T14:54:50.369Z,9.20
2023-03-08T14:58:00.373Z,8.60
2023-03-08T15:01:07.710Z,8.90
2023-03-08T15:04:19.803Z,7.70
2023-03-08T15:07:32.942Z,8.80
2023-03-08T15:10:41.312Z,7.70
2023-03-08T15:13:48.435Z,7.00
2023-03-08T15:16:56.140Z,9.10
2023-03-08T15:20:02.840Z,11.00
2023-03-08T15:23:10.610Z,10.70
2023-03-08T15:26:21.096Z,10.80
2023-03-08T15:29:32.302Z,12.10
2023-03-08T15:32:39.312Z,10.70
2023-03-08T15:35:46.891Z,11.00
2023-03-08T15:38:54.059Z,11.90
2023-03-08T15:42:01.289Z,11.00
2023-03-08T15:45:09.179Z,10.50
2023-03-08T15:48:18.870Z,10.70
2023-03-08T15:51:30.337Z,11.40
2023-03-08T15:54:37.179Z,10.30
2023-03-08T15:57:44.424Z,10.50
2023-03-08T16:00:52.359Z,11.90
2023-03-08T16:03:59.937Z,11.80
2023-03-08T16:07:06.868Z,12.40
2023-03-08T16:10:16.490Z,13.50
2023-03-08T16:13:23.551Z,10.70
2023-03-08T16:16:44.377Z,12.60
2023-03-08T16:19:52.033Z,11.50
2023-03-08T16:22:58.840Z,11.30
2023-03-08T16:26:15.221Z,10.90
2023-03-08T16:29:22.558Z,11.30
2023-03-08T16:32:29.503Z,12.00
2023-03-08T16:35:36.271Z,12.90
2023-03-08T16:38:43.113Z,13.00
2023-03-08T16:41:50.145Z,12.20
2023-03-08T16:44:58.060Z,11.90
2023-03-08T16:48:05.564Z,11.80
2023-03-08T16:51:17.471Z,11.30
2023-03-08T16:54:24.692Z,10.70
2023-03-08T16:57:31.455Z,11.20
2023-03-08T17:00:38.211Z,10.50
2023-03-08T17:03:45.439Z,11.60
2023-03-08T17:06:52.310Z,14.50
2023-03-08T17:09:59.077Z,11.70
2023-03-08T17:13:05.868Z,11.90
2023-03-08T17:16:14.436Z,12.00
2023-03-08T17:19:21.362Z,14.30
2023-03-08T17:22:28.338Z,16.90
2023-03-08T17:25:38.571Z,15.30
2023-03-08T17:28:46.306Z,13.40
2023-03-08T17:31:53.641Z,14.20
2023-03-08T17:35:00.358Z,15.00
2023-03-08T17:38:07.201Z,17.50
2023-03-08T17:41:15.434Z,20.50
2023-03-08T17:44:22.391Z,28.00
2023-03-08T17:47:29.345Z,44.80
2023-03-08T17:50:36.713Z,42.70
2023-03-08T17:53:45.515Z,43.70
2023-03-08T17:56:52.292Z,45.70
2023-03-08T17:59:59.376Z,44.00
2023-03-08T18:03:06.065Z,29.80
2023-03-08T18:06:23.605Z,23.80
2023-03-08T18:09:32.206Z,24.40
2023-03-08T18:12:39.011Z,20.10
2023-03-08T18:15:45.838Z,23.20
2023-03-08T18:18:52.829Z,24.20
2023-03-08T18:21:59.966Z,25.60
2023-03-08T18:25:06.918Z,24.00
2023-03-08T18:28:13.730Z,24.20
2023-03-08T18:31:23.540Z,23.20
2023-03-08T18:34:30.695Z,25.80
2023-03-08T18:37:37.768Z,22.00
2023-03-08T18:40:45.017Z,24.10
2023-03-08T18:43:52.424Z,38.20
2023-03-08T18:46:59.208Z,29.90
2023-03-08T18:50:11.241Z,25.80
2023-03-08T18:53:18.392Z,36.00
2023-03-08T18:56:26.160Z,27.50
2023-03-08T18:59:33.521Z,33.90
2023-03-08T19:02:40.353Z,37.20
2023-03-08T19:05:47.290Z,31.00
2023-03-08T19:08:54.693Z,29.40
2023-03-08T19:12:03.175Z,32.60
2023-03-08T19:15:11.868Z,26.80
2023-03-08T19:18:18.661Z,22.90
2023-03-08T19:21:27.059Z,20.60
2023-03-08T19:24:34.481Z,17.20
2023-03-08T19:27:41.377Z,16.10
2023-03-08T19:30:48.357Z,16.70
2023-03-08T19:33:55.497Z,16.50
2023-03-08T19:37:03.264Z,17.00
2023-03-08T19:40:12.216Z,25.20
2023-03-08T19:43:19.168Z,51.10
2023-03-08T19:46:26.156Z,26.10
2023-03-08T19:49:34.349Z,31.70
2023-03-08T19:52:41.241Z,22.70
2023-03-08T19:55:53.659Z,35.60
2023-03-08T19:59:00.770Z,29.90
2023-03-08T20:02:09.409Z,19.40
2023-03-08T20:05:18.817Z,16.60
2023-03-08T20:08:26.716Z,18.30
2023-03-08T20:11:33.743Z,19.70
2023-03-08T20:14:40.790Z,24.10
2023-03-08T20:17:48.390Z,36.60
2023-03-08T20:20:57.378Z,33.60
2023-03-08T20:24:04.336Z,35.90
2023-03-08T20:27:11.242Z,67.60
2023-03-08T20:30:18.709Z,53.60
2023-03-08T20:33:25.433Z,26.10
2023-03-08T20:36:32.316Z,31.00
2023-03-08T20:39:39.146Z,24.60
2023-03-08T20:42:46.055Z,18.70
2023-03-08T20:45:52.874Z,20.60
2023-03-08T20:48:59.869Z,28.70
2023-03-08T20:52:07.216Z,26.70
2023-03-08T20:55:14.110Z,17.90
2023-03-08T20:58:20.941Z,18.60
2023-03-08T21:01:30.164Z,17.60
2023-03-08T21:04:37.081Z,13.10
2023-03-08T21:07:44.047Z,17.80
2023-03-08T21:10:50.813Z,14.00
2023-03-08T21:13:58.017Z,14.20
2023-03-08T21:17:04.713Z,13.80
2023-03-08T21:20:13.461Z,16.80
2023-03-08T21:23:23.363Z,16.80
2023-03-08T21:26:31.102Z,14.10
2023-03-08T21:29:37.858Z,18.20
2023-03-08T21:32:44.730Z,13.50
2023-03-08T21:35:51.826Z,35.00
2023-03-08T21:38:59.774Z,24.10
2023-03-08T21:42:07.024Z,35.80
2023-03-08T21:45:15.168Z,44.70
2023-03-08T21:48:22.032Z,34.10
2023-03-08T21:51:28.869Z,26.00
2023-03-08T21:54:35.759Z,32.00
2023-03-08T21:57:42.665Z,29.80
2023-03-08T22:00:49.531Z,20.10
2023-03-08T22:03:56.942Z,16.70
2023-03-08T22:07:03.728Z,17.40
2023-03-08T22:10:13.809Z,17.30
2023-03-08T22:13:20.669Z,15.10
2023-03-08T22:16:28.292Z,28.10
2023-03-08T22:19:35.189Z,13.40
2023-03-08T22:22:44.148Z,13.20
2023-03-08T22:25:51.124Z,11.80
2023-03-08T22:28:58.429Z,14.40
2023-03-08T22:32:05.598Z,18.30
2023-03-08T22:35:13.611Z,12.80
2023-03-08T22:38:21.120Z,14.70
2023-03-08T22:41:29.141Z,12.60
2023-03-08T22:44:36.004Z,17.40
2023-03-08T22:47:42.928Z,18.40
2023-03-08T22:50:56.309Z,13.40
2023-03-08T22:54:09.102Z,13.70
2023-03-08T22:57:16.925Z,19.20
2023-03-08T23:00:24.022Z,15.60
2023-03-08T23:03:31.593Z,15.70
2023-03-08T23:06:38.502Z,16.60
2023-03-08T23:09:45.364Z,14.10
2023-03-08T23:12:52.268Z,17.50
2023-03-08T23:15:59.030Z,16.40
2023-03-08T23:19:06.555Z,13.30
2023-03-08T23:22:13.615Z,15.90
2023-03-08T23:25:20.930Z,21.60
2023-03-08T23:28:28.096Z,17.70
2023-03-08T23:31:36.701Z,16.10
2023-03-08T23:34:43.572Z,15.60
2023-03-08T23:37:50.359Z,16.00
2023-03-08T23:40:57.060Z,15.90
2023-03-08T23:44:04.210Z,23.20
2023-03-08T23:47:11.118Z,20.70
2023-03-08T23:50:18.199Z,14.20
2023-03-08T23:53:25.073Z,16.00
2023-03-08T23:56:38.260Z,19.50
2023-03-08T23:59:45.293Z,12.90
